Date,TemperatureHighF,TemperatureAvgF,TemperatureLowF,DewpointHighF,DewpointAvgF,DewpointLowF,HumidityHigh,HumidityAvg,HumidityLow,PressureMaxIn,PressureMinIn,WindSpeedMaxMPH,WindSpeedAvgMPH,GustSpeedMaxMPH,PrecipitationSumIn
2013-1-1,46.5,44.2,42.6,43.2,39.9,35.5,91,85,72,30.21,30.16,0,0,0,0.00
2013-1-2,56.3,50.6,45.2,41.7,37.4,34.3,74,61,48,30.18,30.08,0,0,0,0.00
2013-1-3,52.6,46.7,41.6,43.5,38.8,33.9,82,74,67,30.21,30.11,0,0,0,0.00
2013-1-4,54.9,49.0,44.1,42.2,39.0,36.1,79,69,59,30.24,30.12,0,0,0,0.00
2013-1-5,50.9,47.0,41.6,48.0,44.1,38.3,96,90,76,30.20,30.01,0,0,0,0.27
2013-1-6,53.7,47.9,43.1,45.9,44.1,41.3,95,87,70,30.14,30.00,0,0,0,0.07
2013-1-7,53.4,47.3,41.3,49.5,45.1,39.9,99,92,83,30.21,30.10,0,0,0,0.01
2013-1-8,56.1,49.5,44.5,48.5,45.6,42.6,95,87,74,30.20,30.07,0,0,0,0.00
2013-1-9,50.9,49.2,47.2,48.1,45.8,44.2,93,88,84,30.10,30.01,0,0,0,0.00
2013-1-10,51.9,48.4,45.9,37.9,35.9,32.8,69,62,54,30.13,30.03,0,0,0,0.00
2013-1-11,53.2,47.1,43.2,43.0,37.4,29.2,85,69,52,30.21,30.07,0,0,0,0.00
2013-1-12,50.5,43.6,36.5,38.9,34.3,25.1,86,71,42,30.20,30.09,0,0,0,0.00
2013-1-13,51.2,42.1,34.5,35.5,31.3,23.2,86,67,39,30.22,30.13,0,0,0,0.00
2013-1-14,46.9,44.4,42.6,29.0,24.2,18.7,58,45,35,30.35,30.17,0,0,0,0.00
2013-1-15,53.0,45.7,39.0,37.6,35.0,30.7,90,67,44,30.44,30.36,0,0,0,0.00
2013-1-16,54.7,47.5,41.3,41.0,36.6,33.2,80,67,51,30.38,30.20,0,0,0,0.00
2013-1-17,59.2,51.2,43.6,41.8,38.5,34.6,82,63,47,30.21,30.09,0,0,4,0.00
2013-1-18,60.9,54.2,47.6,41.7,37.5,30.6,71,54,39,30.18,30.08,0,0,0,0.00
2013-1-19,60.9,54.4,46.7,43.6,36.5,29.3,68,51,36,30.20,30.10,0,0,0,0.00
2013-1-20,61.4,54.8,47.2,41.0,35.3,30.4,65,48,39,30.18,30.07,0,0,0,0.00
2013-1-21,60.5,56.4,52.4,45.3,41.5,39.3,65,57,51,30.07,30.02,0,0,0,0.00
2013-1-22,58.0,53.6,49.2,44.6,42.1,38.4,72,65,55,30.06,29.95,0,0,0,0.00
2013-1-23,54.7,52.2,50.2,49.5,46.8,43.4,93,82,68,30.04,29.90,0,0,0,0.16
2013-1-24,57.9,54.2,49.9,52.6,50.7,47.2,93,88,72,30.14,30.02,10,1,10,0.00
2013-1-25,65.0,56.1,52.6,55.6,52.5,50.1,94,88,71,30.14,29.99,11,2,11,0.00
2013-1-26,58.1,52.3,49.0,50.8,45.6,36.2,95,79,45,30.04,29.95,21,5,22,0.00
2013-1-27,55.4,49.7,44.8,41.7,38.9,35.7,77,66,56,30.13,30.02,22,5,22,0.00
2013-1-28,61.6,51.1,46.1,46.6,41.6,37.1,80,70,48,30.24,30.10,17,4,18,0.00
2013-1-29,55.7,50.2,46.4,48.7,43.8,39.7,89,79,67,30.31,30.21,13,2,13,0.00
2013-1-30,63.7,50.5,43.7,51.4,45.3,41.8,94,83,56,30.29,30.21,10,2,10,0.00
2013-1-31,61.9,53.7,46.4,49.5,46.4,43.3,90,77,61,30.24,30.12,13,5,13,0.00
2013-2-1,63.6,55.4,49.4,49.8,47.0,44.1,90,74,57,30.18,30.06,12,4,12,0.00
2013-2-2,57.1,50.7,46.9,51.0,47.7,44.7,94,90,78,30.25,30.16,13,2,14,0.00
2013-2-3,57.1,50.0,45.6,49.0,45.9,42.6,94,86,69,30.21,30.09,13,2,13,0.00
2013-2-4,53.4,48.3,45.3,49.5,46.3,43.6,98,93,84,30.13,30.02,10,1,11,0.01
2013-2-5,57.7,50.9,45.9,49.6,45.5,42.0,92,82,73,30.10,30.02,19,4,19,0.00
2013-2-6,59.0,48.0,41.0,49.0,43.3,38.6,92,84,68,30.15,30.07,18,3,19,0.00
2013-2-7,54.0,48.3,45.2,42.9,41.9,40.3,88,79,64,30.02,29.95,15,3,18,0.14
2013-2-8,55.1,48.3,41.5,43.5,39.8,29.9,92,74,45,29.98,29.89,20,4,21,0.04
2013-2-9,56.7,48.8,41.4,41.5,34.8,29.3,77,60,40,30.04,29.94,16,3,16,0.00
2013-2-10,58.6,46.8,39.1,46.1,40.2,33.4,92,79,53,30.07,29.97,12,3,12,0.00
2013-2-11,67.3,53.0,42.4,47.1,38.9,29.8,89,62,26,30.18,30.01,15,3,17,0.00
2013-2-12,62.1,50.1,43.1,47.7,44.2,40.2,94,81,47,30.32,30.18,10,2,11,0.00
2013-2-13,45.7,44.0,42.9,42.3,41.4,40.5,94,90,88,30.28,30.27,5,2,5,0.00
2013-2-14,65.3,56.4,49.9,51.4,48.7,45.6,86,76,55,30.15,30.09,6,1,7,0.01
2013-2-15,69.0,59.5,47.6,48.0,44.6,41.2,90,60,43,30.21,30.15,13,5,13,0.00
2013-2-16,67.9,57.7,49.2,50.9,47.2,44.6,89,69,50,30.18,30.00,16,4,16,0.00
2013-2-17,62.7,51.0,43.4,48.4,44.6,41.6,95,80,50,30.01,29.91,17,2,17,0.00
2013-2-18,53.1,48.5,43.9,44.3,42.0,38.6,92,79,67,29.99,29.91,26,5,26,0.00
2013-2-19,49.7,46.5,42.6,45.3,39.6,33.9,89,77,60,29.92,29.70,34,6,34,0.21
2013-2-20,59.4,48.3,38.2,44.4,38.8,33.6,87,70,49,30.01,29.80,13,3,13,0.00
2013-2-21,60.9,51.0,44.2,45.2,39.5,34.5,83,66,39,30.12,30.00,19,4,19,0.00
2013-2-22,59.6,50.1,41.5,47.8,43.2,38.2,93,78,49,30.21,30.11,24,3,24,0.00
2013-2-23,58.4,53.0,46.9,48.0,39.6,32.8,91,62,42,30.21,30.10,20,8,21,0.00
2013-2-24,61.7,53.9,48.5,45.5,34.5,25.8,86,50,28,30.20,30.10,21,6,21,0.00
2013-2-25,61.4,50.2,42.4,49.9,45.2,40.5,94,83,62,30.22,30.11,13,3,13,0.00
2013-2-26,63.8,52.2,43.5,46.6,39.3,27.6,88,64,27,30.17,30.08,13,3,15,0.00
2013-2-27,62.2,51.0,42.2,50.0,44.2,38.5,90,79,44,30.31,30.15,11,2,11,0.00
2013-2-28,62.7,53.6,48.9,54.1,49.6,45.8,93,87,72,30.39,30.31,15,3,16,0.00
2013-3-8,64.8,53.7,47.8,47.6,43.7,39.5,80,69,48,29.99,29.82,20,5,21,0.14
2013-3-9,64.8,52.2,42.8,51.2,45.0,40.1,91,77,52,30.25,29.99,15,2,19,0.00
2013-3-10,64.5,53.3,44.2,50.7,45.3,37.3,92,76,39,30.30,30.19,21,3,21,0.00
2013-3-11,68.5,53.4,43.8,50.2,46.1,41.0,94,78,40,30.21,30.04,18,3,18,0.00
2013-3-12,51.8,49.9,48.5,48.3,47.5,46.7,94,91,88,30.07,30.06,4,0,5,0.00
2013-3-15,53.5,51.6,50.4,50.6,49.1,47.9,92,91,90,30.02,30.01,3,1,4,0.01
2013-3-16,67.3,55.2,48.1,53.6,49.0,41.7,96,81,40,30.07,29.96,20,4,21,0.00
2013-3-17,65.0,56.6,51.0,48.5,45.8,40.3,83,68,43,30.10,29.99,22,4,22,0.00
2013-3-26,59.9,55.4,52.2,50.2,47.5,44.4,80,75,69,29.93,29.88,18,4,19,0.33
2013-3-27,57.0,53.3,50.7,52.8,50.3,44.6,96,90,77,29.96,29.90,20,4,21,0.00
2013-3-28,61.1,54.8,53.4,55.7,52.9,51.9,96,94,82,30.02,29.95,14,2,16,0.00
2013-4-11,75.3,64.5,54.4,55.7,50.5,48.0,81,62,43,29.90,29.79,14,2,15,1.12
2013-4-12,72.9,56.9,49.5,52.6,48.9,43.2,92,76,35,29.87,29.77,18,3,20,0.00
2013-4-13,52.7,51.5,50.1,48.9,48.1,46.9,92,88,86,29.83,29.79,12,4,12,0.00
2013-5-6,63.5,60.6,59.4,54.5,53.5,51.8,83,78,67,29.91,29.82,26,12,28,0.00
2013-5-7,65.2,59.7,54.6,56.0,54.1,51.6,91,82,71,29.99,29.90,14,0,19,0.00
2013-5-8,59.7,55.0,53.0,52.6,51.0,49.2,92,86,76,30.08,29.99,0,0,0,0.00
2013-5-9,62.7,55.9,51.7,53.6,50.4,48.1,89,82,71,30.13,30.04,0,0,0,0.00
2013-5-10,64.8,56.2,51.4,55.8,51.6,48.6,92,85,70,30.13,30.05,0,0,0,0.00
2013-5-11,70.2,57.0,50.8,57.9,52.3,49.1,95,85,61,30.09,29.99,0,0,0,0.00
2013-5-12,69.3,59.7,53.3,59.5,54.6,50.7,94,84,67,30.09,29.97,0,0,0,0.00
2013-5-13,71.2,60.4,52.5,59.9,54.5,49.7,91,81,66,30.04,29.88,17,2,17,0.01
2013-5-14,69.5,60.0,53.5,55.0,51.9,48.9,91,75,56,29.93,29.85,21,6,22,0.00
2013-5-15,67.8,59.6,52.9,53.6,50.5,47.3,84,72,60,29.96,29.93,15,2,15,0.00
2013-5-16,63.2,58.7,55.8,56.6,52.4,47.4,86,80,67,29.98,29.90,30,6,30,0.00
2013-5-17,62.7,57.0,53.5,52.4,48.6,45.7,82,74,61,30.02,29.91,30,8,31,0.00
2013-5-18,72.0,59.7,48.9,55.7,50.5,45.8,91,73,50,30.08,30.01,17,4,17,0.00
2013-5-19,78.2,63.6,53.7,56.0,51.3,40.4,84,66,28,30.07,29.91,21,4,22,0.00
2013-5-20,82.0,63.7,54.4,57.5,51.2,41.6,90,68,28,29.95,29.87,26,4,27,0.00
2013-5-21,68.5,59.9,54.2,53.5,47.8,38.6,85,66,43,29.94,29.85,24,5,24,0.00
2013-5-22,64.2,57.3,50.5,46.3,38.9,31.1,75,51,32,29.97,29.84,24,8,24,0.00
2013-5-23,67.2,56.5,48.6,49.8,44.1,40.0,81,64,39,29.95,29.86,24,5,25,0.00
2013-5-24,66.8,56.9,48.8,49.8,46.5,43.1,88,70,49,29.95,29.88,24,5,25,0.00
2013-5-25,67.8,56.6,49.0,51.4,48.2,45.0,88,74,55,29.99,29.90,23,4,23,0.00
2013-5-26,62.0,57.6,54.2,54.7,52.1,49.4,89,82,73,30.07,29.99,34,9,34,0.00
2013-5-27,56.1,55.5,55.0,50.3,50.1,49.7,83,82,81,30.07,30.06,18,5,21,0.00
2013-5-28,68.5,63.3,57.9,57.8,54.8,50.7,84,74,66,29.91,29.86,18,5,19,0.05
2013-5-29,69.5,60.3,56.0,56.7,53.2,49.2,91,78,62,29.92,29.84,23,5,23,0.00
2013-5-30,72.6,59.5,51.7,54.4,51.3,48.1,90,75,51,29.93,29.87,15,4,16,0.00
2013-5-31,82.8,62.5,52.4,56.6,52.4,48.8,90,72,31,29.96,29.84,17,2,18,0.00
2013-6-1,77.8,63.2,55.1,57.8,53.2,50.4,86,71,44,29.88,29.73,11,2,13,0.00
2013-6-3,58.7,56.2,54.6,52.2,51.6,51.2,89,85,79,29.81,29.75,38,10,38,0.00
2013-6-4,59.9,55.8,54.2,54.2,52.0,51.1,92,87,80,29.91,29.81,32,7,33,0.00
2013-6-5,58.7,55.3,53.3,52.6,51.2,49.8,90,86,80,29.96,29.88,29,7,30,0.00
2013-6-8,56.2,56.0,55.9,54.5,54.2,53.9,94,94,93,29.74,29.72,45,24,45,0.01
2013-6-9,60.1,57.1,56.0,55.9,54.8,53.9,95,92,86,29.84,29.73,42,8,46,0.00
2013-6-10,61.2,57.5,55.5,55.5,53.8,52.0,94,87,79,29.90,29.76,33,7,35,0.01
2013-6-11,68.8,63.1,55.5,57.4,54.9,50.6,89,75,67,29.90,29.82,23,4,23,0.00
2013-6-12,76.3,62.5,52.6,55.8,52.4,48.6,89,71,44,29.93,29.85,19,4,20,0.00
2013-6-13,76.7,64.6,55.4,57.0,52.9,48.3,84,68,39,30.03,29.93,20,4,20,0.00
2013-6-14,76.5,63.3,54.5,57.6,51.6,45.1,87,68,35,29.93,29.76,24,4,25,0.00
2013-6-15,60.2,54.9,51.5,52.8,50.4,48.6,92,85,75,29.94,29.77,31,5,32,0.00
2013-6-16,76.8,61.6,51.0,57.4,53.0,48.4,92,75,48,30.02,29.93,15,3,16,0.00
2013-6-17,72.3,62.3,55.0,58.8,54.4,51.2,89,76,61,30.03,29.96,22,5,22,0.00
2013-6-18,65.3,60.3,55.6,54.0,51.7,47.4,88,74,62,29.98,29.91,29,7,30,0.00
2013-6-19,72.6,63.2,56.4,53.9,49.9,45.8,79,63,45,30.00,29.93,25,6,25,0.00
2013-6-20,76.0,63.0,53.6,57.7,51.2,47.6,83,67,40,29.95,29.87,19,4,19,0.00
2013-6-21,76.3,61.9,53.7,56.2,52.5,47.3,88,73,39,29.92,29.85,21,4,21,0.00
2013-6-22,72.8,62.4,54.7,58.1,53.6,50.1,87,74,51,29.88,29.77,15,3,15,0.00
2013-6-23,59.5,58.6,58.0,55.3,54.7,54.2,89,87,85,29.80,29.79,18,3,20,0.00
2013-6-24,59.9,58.0,57.1,57.9,56.1,55.3,96,94,92,29.85,29.82,20,6,20,0.04
2013-6-25,65.3,62.0,59.7,62.7,60.0,57.4,96,93,86,29.93,29.82,30,9,31,0.46
2013-6-26,76.2,66.1,60.1,65.6,61.5,58.9,97,86,63,29.99,29.92,22,4,23,0.02
2013-6-27,76.8,65.3,56.7,64.6,60.1,55.9,97,84,65,30.02,29.94,9,2,9,0.00
2013-6-28,76.3,66.8,59.0,63.6,60.0,57.0,93,80,64,29.97,29.84,9,1,10,0.00
2013-6-29,77.8,67.7,59.9,62.8,59.4,56.6,89,76,58,29.85,29.73,6,1,6,0.00
2013-6-30,74.8,65.8,58.7,62.5,58.5,55.6,90,78,64,29.79,29.70,13,2,13,0.00
2013-7-1,75.7,64.4,57.6,62.8,57.7,55.0,93,80,56,29.78,29.74,17,3,17,0.00
2013-7-2,74.4,64.2,58.0,61.6,57.8,55.6,94,80,61,29.87,29.77,31,7,34,0.00
2013-7-3,78.8,64.7,57.8,63.3,58.5,55.9,95,82,55,29.86,29.70,22,4,24,0.00
2013-7-4,75.7,67.2,60.5,61.3,58.7,55.6,90,75,57,29.73,29.61,20,3,20,0.00
2013-7-5,62.5,59.2,54.9,56.9,53.7,51.6,89,82,76,29.72,29.65,28,6,29,0.00
2013-7-6,59.7,55.8,54.1,53.7,52.5,51.4,92,89,79,29.77,29.70,37,12,37,0.00
2013-7-7,62.7,57.4,54.9,55.7,53.6,52.0,92,87,77,29.81,29.73,25,6,25,0.00
2013-7-8,62.5,58.0,55.0,56.2,54.1,52.4,93,87,80,29.92,29.81,24,6,25,0.00
2013-7-9,70.2,60.5,53.5,60.2,55.4,51.8,95,84,65,29.98,29.86,17,2,18,0.00
2013-7-10,65.0,58.0,54.0,56.6,53.8,51.8,94,86,71,29.92,29.86,23,5,25,0.00
2013-7-11,60.1,55.3,52.5,55.1,52.5,50.9,95,91,81,29.90,29.83,24,6,30,0.00
2013-7-12,62.1,56.9,54.8,54.9,52.9,51.6,92,87,76,29.90,29.82,30,8,30,0.00
2013-7-13,66.3,59.1,54.8,56.8,53.3,51.7,91,82,65,29.91,29.84,20,4,21,0.00
2013-7-14,62.9,57.2,53.7,55.6,53.0,51.3,93,86,75,29.95,29.84,21,4,21,0.00
2013-7-15,59.5,55.4,51.7,54.6,52.7,50.3,96,91,82,29.88,29.79,30,6,30,0.00
2013-7-16,60.3,57.5,54.4,57.5,54.6,51.7,93,90,86,29.97,29.82,28,5,28,0.00
2013-7-17,65.5,60.1,56.4,58.1,55.4,53.4,90,85,75,30.04,29.97,23,4,24,0.00
2013-7-18,67.5,58.1,54.4,57.6,54.2,52.4,96,87,70,30.01,29.88,24,4,25,0.00
2013-7-19,64.5,57.9,54.3,57.6,54.3,52.3,95,88,75,29.90,29.77,24,6,25,0.00
2013-7-20,65.8,56.4,53.1,57.3,53.2,51.4,96,89,73,29.81,29.69,24,6,25,0.00
2013-7-21,55.7,54.4,53.6,53.3,52.5,51.6,95,93,91,29.84,29.73,19,5,20,0.00
2013-7-22,65.2,59.3,54.2,59.7,56.4,52.8,99,90,81,29.91,29.83,26,5,29,0.00
2013-7-23,68.0,59.1,56.8,60.7,50.1,-99.9,93,81,74,29.96,29.88,17,-42,17,0.00
2013-7-24,73.3,41.6,56.2,59.7,0.7,-99.9,94,50,55,29.94,29.84,17,-354,17,0.00
2013-7-25,66.8,32.7,54.8,57.5,-16.1,-99.9,93,45,70,29.95,29.87,22,-456,22,0.00
2013-7-28,59.7,39.8,55.2,54.8,6.7,-99.9,95,61,82,29.83,29.77,32,-299,34,0.00
2013-7-29,58.5,18.8,56.2,55.0,-49.0,-99.9,91,30,87,29.96,29.79,30,-666,32,0.00
2013-7-30,61.4,57.1,53.7,55.9,53.8,51.7,94,89,79,30.05,29.96,32,6,32,0.00
2013-7-31,69.5,59.0,53.5,58.1,54.2,51.8,95,85,66,30.03,29.93,28,5,28,0.00
2013-8-1,68.0,60.2,53.4,57.1,54.5,51.1,93,82,67,30.00,29.90,30,5,31,0.00
2013-8-2,67.5,58.9,53.7,57.1,54.2,51.7,94,85,66,29.93,29.84,18,4,20,0.00
2013-8-3,61.6,57.2,53.5,55.6,53.5,51.5,95,88,78,29.93,29.86,26,8,32,0.00
2013-8-4,59.6,55.8,53.4,54.5,53.0,51.7,95,90,81,29.96,29.90,25,6,28,0.00
2013-8-5,61.6,56.7,54.8,55.0,53.6,52.6,93,89,77,29.98,29.91,26,6,31,0.00
2013-8-6,59.1,59.0,58.8,56.7,56.2,55.9,92,90,90,29.99,29.98,13,5,14,0.00
2013-8-7,61.7,59.2,56.9,57.8,56.4,54.6,93,90,85,30.05,29.98,25,4,26,0.02
2013-8-8,66.3,59.7,55.3,58.2,56.0,52.9,95,88,73,29.98,29.88,25,5,25,0.02
2013-8-9,64.5,58.7,54.8,57.5,55.1,52.8,93,88,77,29.94,29.87,29,6,29,0.00
2013-8-10,65.9,60.6,57.0,59.0,56.6,54.4,92,87,77,29.99,29.93,24,5,25,0.00
2013-8-11,67.0,59.2,55.1,59.0,55.5,53.4,95,88,74,29.98,29.88,17,3,19,0.00
2013-8-12,65.1,58.6,54.9,57.6,55.2,53.4,96,89,71,29.95,29.88,23,5,24,0.00
2013-8-13,73.7,63.0,55.7,60.8,56.8,53.4,93,81,63,29.93,29.84,15,2,16,0.00
2013-8-14,74.9,63.7,55.2,62.9,57.6,52.4,92,81,63,29.91,29.84,20,3,21,0.00
2013-8-15,74.8,65.2,59.2,66.2,61.5,58.1,97,88,74,29.90,29.84,24,3,27,0.00
2013-8-16,75.0,64.7,59.4,63.3,59.8,56.3,95,84,65,29.93,29.87,20,2,23,0.00
2013-8-17,76.7,64.5,59.2,63.7,58.8,55.7,90,82,63,29.92,29.79,19,2,20,0.00
2013-8-18,74.6,67.4,62.9,63.5,60.7,58.8,88,80,65,29.83,29.71,7,1,9,0.00
2013-8-19,73.2,65.0,60.0,61.4,58.7,56.8,92,81,64,29.84,29.73,26,6,26,0.00
2013-8-20,64.5,60.3,57.7,58.9,57.4,56.0,96,90,81,29.85,29.77,26,6,29,0.00
2013-8-21,67.3,61.0,58.2,58.1,56.2,55.0,92,84,71,29.89,29.81,25,5,26,0.00
2013-8-22,66.1,61.0,57.6,57.2,55.5,54.1,89,82,72,29.93,29.83,28,8,29,0.00
2013-8-23,70.3,60.9,56.6,60.4,56.3,53.9,92,85,70,29.87,29.73,18,3,20,0.00
2013-8-24,71.5,62.9,56.5,61.4,57.9,53.9,93,84,69,29.83,29.77,31,6,32,0.00
2013-8-25,69.5,64.5,60.3,63.8,60.9,58.4,95,88,80,29.88,29.82,21,4,22,0.00
2013-8-26,73.9,64.5,60.4,61.6,58.7,56.4,93,82,63,29.95,29.83,19,3,19,0.00
2013-8-27,75.9,64.3,57.6,63.1,58.3,55.3,93,82,59,29.84,29.75,17,2,19,0.00
2013-8-28,72.7,65.0,59.0,64.7,60.9,57.3,95,87,76,29.87,29.79,27,3,27,0.00
2013-8-29,76.3,66.5,61.0,65.6,62.0,59.0,94,86,69,29.99,29.88,16,3,16,0.00
2013-8-30,79.7,66.8,60.1,65.5,61.7,59.0,97,85,62,29.98,29.84,16,3,16,0.00
2013-8-31,76.5,65.1,59.5,61.6,59.2,56.9,93,82,58,29.91,29.82,19,3,23,0.00
2013-9-1,62.0,61.0,60.1,57.8,56.9,55.9,88,86,85,29.87,29.84,10,1,10,0.00
2013-9-2,72.8,68.7,62.8,65.1,62.7,59.3,93,81,75,29.90,29.81,31,9,31,0.00
2013-9-3,72.3,65.0,58.3,61.7,59.1,55.4,91,82,62,29.93,29.86,29,5,30,0.00
2013-9-4,77.0,65.9,57.8,62.5,59.1,55.7,93,80,58,29.96,29.86,23,4,25,0.00
2013-9-5,77.3,66.6,58.3,60.8,58.6,55.7,93,77,54,29.94,29.87,16,3,16,0.00
2013-9-6,80.5,67.6,57.5,63.3,58.7,52.9,92,75,41,29.92,29.75,6,1,6,0.00
2013-9-7,81.3,68.8,59.7,63.4,57.2,52.8,86,68,41,29.81,29.73,16,2,16,0.00
2013-9-8,71.5,63.1,57.9,61.1,57.8,55.3,93,83,67,29.82,29.69,10,2,16,0.00
2013-9-9,73.0,62.9,57.3,61.1,57.4,54.4,92,83,61,29.76,29.64,16,3,18,0.00
2013-9-10,59.5,59.4,59.2,57.7,57.5,57.2,94,93,92,29.68,29.67,19,7,19,0.00
2013-9-11,66.3,63.3,61.2,60.0,59.3,58.6,93,87,79,29.94,29.90,25,5,26,0.00
2013-9-12,72.0,64.0,59.8,63.1,60.3,57.3,95,88,72,29.92,29.81,16,3,16,0.00
2013-9-13,72.2,62.3,57.9,61.2,57.6,55.3,93,85,68,29.84,29.69,21,3,21,0.00
2013-9-14,72.2,61.8,56.3,61.5,57.0,54.0,93,85,68,29.76,29.67,14,3,15,0.00
2013-9-15,71.3,63.4,56.7,60.7,57.7,53.4,91,82,66,29.79,29.71,28,6,28,0.00
2013-9-16,75.5,64.0,58.4,62.0,58.7,55.6,98,84,57,29.84,29.71,15,2,17,0.00
2013-9-17,75.0,65.8,58.6,58.9,56.4,54.1,89,73,50,29.82,29.75,22,4,23,0.00
2013-9-18,77.1,65.1,55.7,58.4,54.5,46.3,92,71,35,29.85,29.74,24,3,24,0.00
2013-9-19,79.1,64.1,54.0,61.1,54.5,50.1,89,73,41,29.80,29.67,10,2,11,0.00
2013-9-20,67.0,62.0,55.6,61.8,58.7,51.7,94,89,81,29.80,29.71,28,6,28,0.00
2013-9-21,64.5,61.8,59.2,61.5,58.6,54.8,96,89,79,29.84,29.74,33,8,33,0.75
2013-9-22,70.3,61.9,54.3,58.5,55.4,52.3,94,80,62,29.93,29.83,19,3,20,0.00
2013-9-23,76.9,63.2,56.0,63.3,56.3,52.3,89,79,62,29.96,29.87,19,3,19,0.00
2013-9-24,72.5,67.2,62.6,58.5,53.9,47.3,73,62,54,29.93,29.84,30,8,30,0.00
2013-9-25,68.8,63.3,59.9,50.9,47.9,43.7,68,58,47,29.87,29.75,26,9,30,0.00
2013-9-26,73.0,62.9,56.0,54.6,46.3,40.4,73,56,38,29.92,29.77,19,4,20,0.00
2013-9-27,73.7,63.9,54.7,54.3,45.6,35.1,77,54,27,30.03,29.92,20,4,21,0.00
2013-9-28,75.3,62.1,52.2,57.4,50.8,41.4,91,69,32,30.02,29.93,13,3,14,0.00
2013-9-29,69.7,62.9,56.7,62.7,59.1,54.6,96,88,78,30.04,29.99,20,4,21,0.00
2013-9-30,66.2,62.3,59.4,62.9,60.2,52.0,97,93,75,30.01,29.91,25,5,25,0.02
2013-10-1,70.8,60.7,51.9,55.6,52.1,47.8,91,74,53,29.96,29.85,16,3,17,0.00
2013-10-2,57.7,57.0,56.3,54.2,52.8,52.2,88,86,84,29.88,29.87,3,0,3,0.00
2013-10-3,73.8,69.0,60.5,48.2,41.4,34.8,63,38,27,30.01,29.89,32,11,33,0.00
2013-10-4,78.5,68.8,59.7,54.0,40.0,30.3,65,36,19,30.02,29.90,38,11,38,0.00
2013-10-5,81.7,68.8,58.2,52.5,38.5,30.8,56,34,17,30.12,30.02,11,3,11,0.00
2013-10-6,80.7,66.8,54.9,50.5,41.7,35.3,59,41,22,30.05,29.93,12,4,13,0.00
2013-10-7,74.9,62.9,54.8,54.5,46.9,39.7,78,57,31,29.93,29.80,17,2,18,0.00
2013-10-8,67.0,58.2,51.2,54.2,50.4,45.8,90,76,50,29.85,29.65,25,2,26,0.00
2013-10-9,67.0,58.1,51.2,50.8,48.1,42.8,91,71,43,29.70,29.57,22,4,22,0.00
2013-10-10,59.4,55.3,52.4,51.8,50.0,48.3,89,83,74,29.95,29.70,35,6,35,0.00
2013-10-11,59.8,55.0,50.8,51.5,49.7,47.6,92,83,71,30.04,29.92,18,3,18,0.00
2013-10-12,61.4,54.7,49.9,52.2,49.8,47.6,94,84,65,29.95,29.84,16,3,19,0.00
2013-10-13,69.3,58.5,50.5,54.2,50.1,43.0,92,75,44,30.00,29.86,26,3,28,0.00
2013-10-14,77.0,59.6,49.4,54.3,48.2,41.3,90,69,31,30.05,29.93,10,2,10,0.00
2013-10-15,77.7,62.2,50.7,52.5,44.6,38.6,80,55,26,29.98,29.88,11,3,13,0.00
2013-10-16,78.6,62.8,51.7,53.1,43.5,37.6,75,52,23,30.02,29.93,15,3,19,0.00
2013-10-17,76.0,60.6,52.4,54.8,45.8,37.6,77,60,26,30.02,29.89,12,3,15,0.00
2013-10-18,65.7,56.8,49.9,54.8,51.1,47.1,91,82,63,30.00,29.92,7,1,7,0.00
2013-10-19,70.0,56.7,48.6,56.3,51.2,46.4,93,83,55,30.02,29.93,9,2,9,0.00
2013-10-20,62.9,56.7,50.1,55.0,51.6,48.7,96,83,71,29.96,29.85,10,1,10,0.01
2013-10-21,61.7,53.5,49.9,52.9,49.9,47.4,95,88,72,29.96,29.85,10,2,10,0.00
2013-10-22,62.5,53.4,49.2,55.4,50.5,47.6,96,90,73,29.97,29.86,7,1,7,0.01
2013-10-23,61.1,52.0,48.0,54.7,49.5,46.6,96,92,75,29.92,29.84,20,2,21,0.00
2013-10-24,59.9,53.2,49.0,51.9,49.3,46.8,93,87,74,30.04,29.91,24,4,24,0.00
2013-10-25,66.3,55.6,47.6,55.5,51.1,45.7,94,85,67,30.11,30.01,13,2,13,0.00
2013-10-26,68.8,56.6,48.7,56.0,51.7,46.8,94,84,59,30.09,29.95,6,1,7,0.01
2013-10-27,56.9,53.5,49.8,51.6,49.5,47.1,94,86,76,29.97,29.61,38,8,41,0.00
2013-10-28,61.1,55.2,51.0,51.2,48.5,44.8,88,78,65,29.78,29.61,24,5,24,0.00
2013-10-29,59.2,55.3,49.5,51.6,49.3,46.3,92,80,68,29.99,29.78,18,3,21,0.00
2013-10-30,64.4,53.4,46.4,53.2,47.8,44.2,94,82,58,30.09,29.99,14,3,14,0.00
2013-10-31,67.9,55.3,47.3,55.4,48.4,44.3,92,79,53,30.12,30.00,10,2,10,0.00
2013-11-1,71.0,59.4,50.5,53.2,49.1,46.1,86,70,46,30.08,29.94,16,4,16,0.00
2013-11-2,64.3,56.6,51.6,55.4,50.9,45.6,92,81,68,29.96,29.84,10,2,10,0.00
2013-11-3,56.2,56.0,55.8,49.0,48.6,48.3,78,76,75,29.90,29.90,6,2,6,0.00
2013-11-4,69.3,62.4,59.0,49.7,40.5,32.6,64,45,30,30.00,29.88,16,4,16,0.00
2013-11-5,70.3,58.5,50.5,51.3,43.7,35.3,77,59,31,30.15,29.99,9,2,12,0.00
2013-11-6,67.2,60.6,51.5,47.6,43.6,40.3,75,54,43,30.19,30.09,16,6,16,0.00
2013-11-7,71.0,59.5,53.3,53.5,47.6,41.5,89,66,38,30.10,30.00,13,2,13,0.00
2013-11-8,67.0,55.2,49.9,58.3,50.8,46.4,97,86,64,30.02,29.89,11,2,12,0.00
2013-11-9,68.7,55.4,46.8,54.6,49.5,44.6,93,81,56,29.98,29.91,25,4,27,0.00
2013-11-10,60.7,55.4,51.3,52.6,50.8,48.4,93,85,73,30.06,29.97,22,5,22,0.00
2013-11-11,60.4,55.2,50.7,53.9,51.4,48.5,93,87,76,30.10,30.02,11,2,12,0.00
2013-11-12,65.5,58.4,54.5,55.0,52.3,49.3,89,80,67,30.21,30.09,11,1,11,0.00
2013-11-13,55.4,52.2,50.4,52.4,49.9,48.6,94,92,88,30.19,30.14,7,2,7,0.00
2013-11-14,64.7,56.9,52.6,54.5,50.8,36.2,96,83,35,30.02,29.80,23,4,24,0.00
2013-11-15,62.8,55.9,48.6,50.6,45.9,40.3,87,70,45,29.82,29.66,18,3,19,0.00
2013-11-16,63.7,54.1,46.4,52.3,48.4,42.6,91,82,64,29.86,29.70,15,3,15,0.00
2013-11-17,57.1,52.5,48.6,51.2,48.3,46.3,93,86,73,30.03,29.86,17,2,18,0.00
2013-11-18,55.7,52.6,46.4,51.0,48.8,44.2,94,87,79,30.09,30.02,21,3,21,0.01
2013-11-19,58.5,56.1,53.2,56.9,53.2,49.7,96,90,83,30.04,29.87,28,7,31,0.58
2013-11-20,58.1,56.3,52.3,56.8,54.8,49.8,96,94,91,29.88,29.78,29,6,29,0.65
2013-11-21,61.5,56.6,51.8,50.7,41.1,30.4,95,61,32,29.92,29.84,38,11,38,0.00
2013-11-22,69.8,62.9,57.8,37.7,28.7,18.1,45,28,19,29.96,29.84,42,15,45,0.00
2013-11-23,65.2,57.4,48.9,51.8,39.0,28.3,91,53,29,30.04,29.90,27,5,27,0.00
2013-11-24,58.9,51.4,46.6,49.8,45.8,41.4,95,82,62,30.19,30.03,7,2,9,0.00
2013-11-25,60.1,52.3,45.3,49.7,45.2,41.3,90,77,61,30.27,30.18,12,5,12,0.00
2013-11-26,59.4,54.8,50.8,46.5,44.3,42.1,77,68,59,30.20,29.98,14,6,14,0.00
2013-11-27,60.9,56.1,51.3,49.5,45.9,43.0,75,69,62,29.98,29.78,15,6,15,0.00
2013-11-28,67.9,56.1,50.2,52.0,46.1,43.1,82,70,46,30.01,29.81,10,3,11,0.00
2013-11-29,64.3,53.9,46.6,52.4,47.9,43.9,94,81,54,30.15,30.01,11,2,11,0.00
2013-11-30,59.7,52.2,46.4,52.4,48.3,44.8,95,87,73,30.21,30.13,9,2,9,0.00
2013-12-1,61.9,52.6,46.0,53.5,48.4,44.1,94,86,70,30.28,30.15,10,2,10,0.00
2013-12-2,61.3,55.9,48.5,54.5,51.6,45.6,95,86,74,30.17,29.88,15,3,16,0.01
2013-12-3,58.4,53.1,50.8,54.3,40.6,33.8,89,63,49,29.88,29.79,31,8,33,0.00
2013-12-4,51.0,44.6,37.3,34.8,29.9,23.5,69,57,45,30.02,29.95,9,3,10,0.00
2013-12-5,50.9,41.4,34.8,35.7,29.3,20.1,79,64,35,30.10,30.02,14,3,14,0.00
2013-12-6,52.5,44.3,35.9,49.1,39.1,30.8,91,82,69,30.13,29.85,41,6,43,0.32
2013-12-7,49.4,44.7,39.2,45.9,31.5,26.9,89,60,44,30.19,29.86,24,7,27,0.00
2013-12-8,44.7,40.3,35.0,32.7,28.2,23.8,81,63,44,30.26,30.17,20,6,20,0.00
2013-12-9,50.4,41.0,32.0,34.4,26.5,19.4,81,59,30,30.35,30.25,19,6,19,0.00
2013-12-10,50.6,44.4,38.4,36.8,32.1,26.9,78,62,45,30.35,30.15,19,7,21,0.00
2013-12-11,54.4,47.6,40.2,38.4,34.8,30.2,78,62,44,30.19,30.11,22,8,22,0.00
2013-12-12,58.3,49.0,43.0,41.6,36.9,33.8,84,64,44,30.20,30.10,15,5,15,0.00
2013-12-13,52.9,45.0,39.2,47.3,40.5,36.3,98,85,58,30.28,30.17,11,2,11,0.00
2013-12-14,60.1,50.1,41.0,43.6,40.2,37.8,93,70,46,30.33,30.25,17,5,18,0.00
2013-12-15,59.5,52.9,47.7,43.6,40.2,37.6,76,62,50,30.30,30.17,17,8,17,0.00
2013-12-16,64.3,56.5,50.3,44.0,40.2,36.8,72,55,40,30.18,30.05,16,7,17,0.00
2013-12-17,61.0,56.5,52.3,45.3,41.6,37.9,66,57,47,30.11,29.96,19,8,20,0.00
2013-12-18,56.1,51.3,46.3,48.4,44.5,38.7,92,78,57,29.96,29.70,25,4,26,0.00
2013-12-19,60.1,52.4,44.4,45.7,37.4,25.2,80,58,33,29.88,29.67,21,4,22,0.00
2013-12-20,59.4,48.0,39.5,41.9,34.4,24.2,76,60,35,29.96,29.87,12,3,12,0.00
2013-12-21,58.9,50.3,43.8,52.0,46.1,38.3,94,86,75,30.02,29.91,12,2,12,0.00
2013-12-22,62.6,52.0,44.4,46.5,42.7,40.5,95,72,46,30.22,30.02,13,4,13,0.00
2013-12-23,60.2,53.4,44.9,44.9,42.0,39.6,83,66,54,30.33,30.22,16,6,16,0.00
2013-12-24,59.4,51.3,45.3,48.3,44.2,40.6,85,77,61,30.27,30.13,11,3,11,0.00
2013-12-25,60.9,54.6,46.2,46.0,43.2,40.9,85,66,51,30.23,30.13,20,7,20,0.00
2013-12-26,62.7,56.5,49.1,44.9,40.8,35.8,75,57,41,30.19,30.10,15,6,15,0.00
2013-12-27,58.7,54.3,46.4,43.9,41.1,35.9,77,61,48,30.16,30.06,16,6,16,0.00
2013-12-28,61.4,49.6,42.4,48.2,41.2,36.9,82,73,49,30.08,29.96,17,3,17,0.00
2013-12-29,64.5,55.1,44.3,45.1,34.9,26.5,80,49,26,30.11,30.02,19,5,21,0.00
2013-12-30,60.4,52.3,47.1,48.0,42.6,37.6,91,70,52,30.19,30.10,14,4,14,0.00
2013-12-31,60.0,48.9,42.2,46.4,41.0,36.1,92,76,41,30.21,30.09,13,3,13,0.00
2014-1-1,61.5,48.7,41.0,48.2,41.4,37.4,94,76,51,30.16,30.06,9,3,10,0.00
2014-1-2,63.9,55.8,47.6,44.4,39.8,37.1,73,56,40,30.12,29.98,18,6,18,0.00